Terminal Aerodrome Forecast
Issued by NWS

Home | Current Version | Previous Version | Text Only | Print | Product List | Glossary On
Versions: 1 2 3 4 5 6 7 8 9 10 11 12 13 14 15 16
603
FTPA31 PHFO 251733
TAFHMK
TAF
PHMK 251733Z 2518/2618 VRB06KT P6SM SKC
     FM252000 05011G15KT P6SM SCT025 SCT045
     FM260600 05009KT P6SM FEW025 SCT045=

USA.gov is the U.S. government's official web portal to all federal, state and local government web resources and services.